Time;durP1;ratioP1;P1;durP2;ratioP2;P2;SDS_P1;SDS_P2;PMS_P1;PMS_P2;Temp;Humidity;BMP_temperature;BMP_pressure;BME280_temperature;BME280_humidity;BME280_pressure;Samples;Min_cycle;Max_cycle;Signal;HPM_P1;HPM_P2
2023/08/05 00:01:07;;;;;;;8.10;3.63;;;;;;;14.34;100.00;101526.09;4846164;29;20041;-88
2023/08/05 00:03:32;;;;;;;7.93;4.33;;;;;;;14.31;100.00;101527.38;4862686;29;20040;-88
2023/08/05 00:05:58;;;;;;;8.53;3.70;;;;;;;14.30;100.00;101516.69;4845947;29;20041;-88
2023/08/05 00:08:24;;;;;;;6.45;4.50;;;;;;;14.28;100.00;101521.56;4862500;29;20049;-88
2023/08/05 00:10:50;;;;;;;8.40;4.10;;;;;;;14.31;100.00;101515.66;4862622;29;20034;-88
2023/08/05 00:13:16;;;;;;;6.97;4.40;;;;;;;14.35;100.00;101508.66;4861345;29;20034;-88
2023/08/05 00:15:41;;;;;;;7.45;4.50;;;;;;;14.36;100.00;101508.47;4861239;29;20097;-88
2023/08/05 00:18:07;;;;;;;6.77;4.53;;;;;;;14.39;100.00;101507.16;4830622;29;20044;-88
2023/08/05 00:20:33;;;;;;;9.27;4.50;;;;;;;14.41;100.00;101504.19;4845855;29;20034;-88
2023/08/05 00:22:58;;;;;;;8.43;4.53;;;;;;;14.42;100.00;101505.88;4860759;29;20475;-88
2023/08/05 00:25:24;;;;;;;7.87;4.47;;;;;;;14.42;100.00;101503.16;4860856;29;20471;-87
2023/08/05 00:27:49;;;;;;;12.45;5.05;;;;;;;14.42;100.00;101501.22;4861719;29;20038;-88
2023/08/05 00:30:14;;;;;;;6.77;4.30;;;;;;;14.45;100.00;101502.69;4845550;29;20376;-88
2023/08/05 00:32:43;;;;;;;8.77;4.73;;;;;;;14.45;100.00;101500.78;4830751;29;20136;-88
2023/08/05 00:35:08;;;;;;;7.75;4.50;;;;;;;14.48;100.00;101496.78;4860911;29;20120;-88
2023/08/05 00:37:35;;;;;;;8.50;4.20;;;;;;;14.52;100.00;101500.72;4845422;29;20127;-88
2023/08/05 00:40:01;;;;;;;6.68;4.53;;;;;;;14.50;100.00;101495.50;4861682;29;20117;-88
2023/08/05 00:42:28;;;;;;;6.43;4.50;;;;;;;14.55;100.00;101492.09;4845559;29;20065;-88
2023/08/05 00:44:54;;;;;;;7.50;4.60;;;;;;;14.56;100.00;101493.75;4861085;29;20395;-88
2023/08/05 00:47:19;;;;;;;5.22;4.60;;;;;;;14.56;100.00;101491.84;4860558;29;20123;-89
2023/08/05 00:49:51;;;;;;;6.33;4.60;;;;;;;14.53;100.00;101486.03;4860739;29;20463;-88
2023/08/05 00:52:20;;;;;;;5.55;4.53;;;;;;;14.52;100.00;101479.72;4860683;29;20064;-89
2023/08/05 00:54:46;;;;;;;6.88;4.53;;;;;;;14.52;100.00;101481.63;4861900;29;20053;-89
2023/08/05 00:57:13;;;;;;;9.93;5.17;;;;;;;14.47;100.00;101476.84;4860523;29;20495;-89
2023/08/05 00:59:39;;;;;;;9.10;4.53;;;;;;;14.45;100.00;101472.66;4860728;29;20053;-88
2023/08/05 01:02:06;;;;;;;8.98;4.90;;;;;;;14.43;100.00;101475.63;4844885;29;20065;-89
2023/08/05 01:04:32;;;;;;;9.70;4.32;;;;;;;14.44;100.00;101473.72;4860570;29;20483;-88
2023/08/05 01:06:58;;;;;;;10.05;4.63;;;;;;;14.38;100.00;101470.00;4862199;29;20051;-88
2023/08/05 01:09:25;;;;;;;9.80;4.80;;;;;;;14.31;100.00;101477.44;4844834;29;20037;-89
2023/08/05 01:11:50;;;;;;;8.05;5.35;;;;;;;14.26;100.00;101472.66;4844870;29;20550;-89
2023/08/05 01:14:16;;;;;;;7.47;4.75;;;;;;;14.21;100.00;101467.84;4860448;29;20035;-89
2023/08/05 01:16:41;;;;;;;14.63;5.20;;;;;;;14.19;100.00;101458.22;4860609;29;20493;-88
2023/08/05 01:19:26;;;;;;;7.50;5.33;;;;;;;14.19;100.00;101461.78;4861544;29;20085;-88
2023/08/05 01:22:08;;;;;;;9.05;5.70;;;;;;;14.19;100.00;101460.97;4845002;29;20120;-88
2023/08/05 01:24:47;;;;;;;8.13;5.60;;;;;;;14.13;100.00;101457.22;4845034;29;20085;-88
2023/08/05 01:27:13;;;;;;;10.80;5.30;;;;;;;14.07;100.00;101452.66;4860223;29;20128;-89
2023/08/05 01:29:38;;;;;;;11.77;4.97;;;;;;;14.02;100.00;101453.34;4845194;29;20124;-88
2023/08/05 01:32:06;;;;;;;7.57;5.23;;;;;;;14.04;100.00;101458.56;4860233;29;20482;-88
2023/08/05 01:34:32;;;;;;;8.27;5.05;;;;;;;14.05;100.00;101460.22;4860699;29;20094;-88
2023/08/05 01:36:58;;;;;;;14.50;6.00;;;;;;;14.05;100.00;101460.22;4844643;29;20402;-88
2023/08/05 01:39:23;;;;;;;9.20;5.67;;;;;;;14.04;100.00;101450.41;4845498;29;20493;-88
2023/08/05 01:41:48;;;;;;;9.97;5.80;;;;;;;14.00;100.00;101462.81;4845322;29;20436;-88
2023/08/05 01:44:14;;;;;;;9.37;5.77;;;;;;;13.95;100.00;101458.03;4845264;29;20360;-88
2023/08/05 01:46:39;;;;;;;10.13;5.63;;;;;;;13.91;100.00;101459.53;4844783;29;20595;-89
2023/08/05 01:49:05;;;;;;;10.45;5.88;;;;;;;13.86;100.00;101453.88;4859983;29;20026;-88
2023/08/05 01:51:30;;;;;;;11.20;5.87;;;;;;;13.78;100.00;101452.28;4844929;29;20073;-88
2023/08/05 01:53:55;;;;;;;9.80;5.67;;;;;;;13.72;100.00;101460.53;4844212;29;20392;-88
2023/08/05 01:56:21;;;;;;;10.63;5.70;;;;;;;13.66;100.00;101464.97;4844335;29;20041;-88
2023/08/05 01:58:46;;;;;;;11.87;5.67;;;;;;;13.63;100.00;101458.06;4829341;29;20157;-88
2023/08/05 02:01:11;;;;;;;9.07;5.93;;;;;;;13.61;100.00;101462.06;4829107;29;20487;-88
2023/08/05 02:03:37;;;;;;;11.00;6.65;;;;;;;13.57;100.00;101464.41;4814655;29;20037;-88
2023/08/05 02:06:02;;;;;;;10.07;6.10;;;;;;;13.50;100.00;101455.41;4845583;29;20046;-89
2023/08/05 02:08:28;;;;;;;11.23;6.83;;;;;;;13.43;100.00;101466.34;4847906;29;20033;-88
2023/08/05 02:10:53;;;;;;;11.23;5.90;;;;;;;13.38;100.00;101460.75;4832944;29;20071;-88
2023/08/05 02:13:21;;;;;;;12.63;6.60;;;;;;;13.33;100.00;101464.09;4848381;29;20042;-88
2023/08/05 02:15:46;;;;;;;9.53;6.83;;;;;;;13.28;100.00;101463.06;4832876;29;20293;-88
2023/08/05 02:18:12;;;;;;;14.43;6.90;;;;;;;13.25;100.00;101458.06;4847883;29;20030;-88
2023/08/05 02:20:39;;;;;;;13.17;6.87;;;;;;;13.21;100.00;101456.81;4847607;29;20375;-88
2023/08/05 02:23:05;;;;;;;12.18;6.65;;;;;;;13.15;100.00;101462.09;4863289;29;20131;-88
2023/08/05 02:25:30;;;;;;;9.33;6.53;;;;;;;13.13;100.00;101456.03;4848160;29;20530;-88
2023/08/05 02:27:56;;;;;;;14.20;6.47;;;;;;;13.09;100.00;101457.50;4847959;29;20379;-89
2023/08/05 02:30:21;;;;;;;12.00;6.60;;;;;;;13.08;100.00;101449.53;4832209;29;20395;-88
2023/08/05 02:32:46;;;;;;;10.87;6.70;;;;;;;13.02;100.00;101448.56;4862835;29;20036;-88
2023/08/05 02:35:12;;;;;;;10.88;6.68;;;;;;;12.99;100.00;101452.53;4863328;29;20044;-88
2023/08/05 02:37:37;;;;;;;11.53;6.67;;;;;;;12.96;100.00;101433.06;4848290;29;20045;-88
2023/08/05 02:40:06;;;;;;;10.97;6.90;;;;;;;12.95;100.00;101443.13;4862915;29;20041;-88
2023/08/05 02:42:31;;;;;;;12.75;6.88;;;;;;;12.93;100.00;101436.22;4862905;29;20074;-88
2023/08/05 02:44:57;;;;;;;13.53;7.23;;;;;;;12.91;100.00;101436.44;4847590;29;20061;-88
2023/08/05 02:47:23;;;;;;;10.32;6.72;;;;;;;12.90;100.00;101429.34;4847435;29;20045;-88
2023/08/05 02:49:48;;;;;;;11.50;7.80;;;;;;;12.86;100.00;101435.41;4831885;29;20170;-88
2023/08/05 02:52:14;;;;;;;15.03;6.87;;;;;;;12.85;100.00;101436.47;4862711;29;20033;-88
2023/08/05 02:54:39;;;;;;;10.15;7.35;;;;;;;12.87;100.00;101434.38;4862280;29;20053;-88
2023/08/05 02:57:05;;;;;;;11.50;7.67;;;;;;;12.88;100.00;101428.69;4847256;29;20042;-89
2023/08/05 02:59:30;;;;;;;13.30;7.33;;;;;;;12.91;100.00;101427.44;4847022;29;20398;-88
2023/08/05 03:01:56;;;;;;;11.20;7.27;;;;;;;12.90;100.00;101426.59;4831893;29;20045;-88
2023/08/05 03:04:21;;;;;;;12.18;7.43;;;;;;;12.89;100.00;101432.25;4831884;29;20041;-88
2023/08/05 03:06:46;;;;;;;11.53;7.37;;;;;;;12.88;100.00;101434.16;4862745;29;20440;-89
2023/08/05 03:09:13;;;;;;;10.47;7.30;;;;;;;12.89;100.00;101427.66;4862503;29;20535;-88
2023/08/05 03:11:39;;;;;;;11.13;7.32;;;;;;;12.85;100.00;101414.69;4847822;29;20069;-88
2023/08/05 03:14:04;;;;;;;12.20;7.67;;;;;;;12.84;100.00;101405.66;4846893;29;20116;-88
2023/08/05 03:16:30;;;;;;;12.47;7.43;;;;;;;12.81;100.00;101397.94;4830983;29;20479;-88
2023/08/05 03:18:55;;;;;;;15.23;7.70;;;;;;;12.80;100.00;101404.44;4863872;29;20041;-88
2023/08/05 03:21:20;;;;;;;11.80;7.70;;;;;;;12.80;100.00;101401.72;4861955;29;20441;-88
2023/08/05 03:23:46;;;;;;;28.70;8.37;;;;;;;12.77;100.00;101404.84;4831572;29;20057;-88
2023/08/05 03:26:13;;;;;;;14.33;7.10;;;;;;;12.75;100.00;101393.34;4847178;29;20041;-88
2023/08/05 03:28:39;;;;;;;13.00;8.13;;;;;;;12.74;100.00;101392.53;4846628;29;20495;-88
2023/08/05 03:31:05;;;;;;;12.25;7.45;;;;;;;12.72;100.00;101393.78;4846472;29;20120;-88
2023/08/05 03:33:30;;;;;;;13.17;7.70;;;;;;;12.73;100.00;101390.84;4862998;29;20045;-88
2023/08/05 03:35:56;;;;;;;11.43;7.50;;;;;;;12.69;100.00;101392.34;4846635;29;20129;-88
2023/08/05 03:38:21;;;;;;;12.80;7.60;;;;;;;12.66;100.00;101395.50;4830951;29;20132;-88
2023/08/05 03:40:46;;;;;;;10.95;7.55;;;;;;;12.64;100.00;101394.88;4846833;29;20059;-88
2023/08/05 03:43:12;;;;;;;11.73;8.17;;;;;;;12.61;100.00;101385.25;4863079;29;20036;-88
2023/08/05 03:45:37;;;;;;;13.43;7.73;;;;;;;12.60;100.00;101380.84;4862424;29;20462;-88
2023/08/05 03:48:05;;;;;;;14.07;7.80;;;;;;;12.57;100.00;101375.84;4846380;29;20398;-88
2023/08/05 03:50:31;;;;;;;12.32;8.13;;;;;;;12.57;100.00;101369.56;4861738;29;20466;-88
2023/08/05 03:52:58;;;;;;;17.40;8.50;;;;;;;12.57;100.00;101370.41;4861515;29;20123;-88
2023/08/05 03:55:26;;;;;;;14.05;8.48;;;;;;;12.58;100.00;101369.34;4847067;29;20034;-88
2023/08/05 03:57:52;;;;;;;14.25;8.73;;;;;;;12.58;100.00;101360.38;4846218;29;20037;-88
2023/08/05 04:00:17;;;;;;;13.97;8.00;;;;;;;12.59;100.00;101364.72;4830815;29;20064;-88
2023/08/05 04:02:43;;;;;;;17.95;8.02;;;;;;;12.62;100.00;101364.28;4846672;29;20478;-88
2023/08/05 04:05:09;;;;;;;14.98;8.27;;;;;;;12.62;100.00;101358.84;4846098;29;20124;-87
2023/08/05 04:07:34;;;;;;;15.02;8.32;;;;;;;12.66;100.00;101359.28;4846525;29;20034;-88
2023/08/05 04:10:00;;;;;;;18.77;9.30;;;;;;;12.62;100.00;101350.69;4846021;29;20124;-88
2023/08/05 04:12:26;;;;;;;16.73;8.60;;;;;;;12.61;100.00;101357.22;4862233;29;20038;-88
2023/08/05 04:14:52;;;;;;;14.75;8.80;;;;;;;12.60;100.00;101359.06;4861535;29;20040;-88
2023/08/05 04:17:18;;;;;;;16.73;9.05;;;;;;;12.59;100.00;101359.28;4830549;29;20065;-88
2023/08/05 04:19:46;;;;;;;14.90;9.03;;;;;;;12.60;100.00;101366.41;4846017;29;20058;-88
2023/08/05 04:22:12;;;;;;;16.27;9.38;;;;;;;12.61;100.00;101359.94;4861143;29;20041;-88
2023/08/05 04:24:37;;;;;;;11.93;8.52;;;;;;;12.62;100.00;101340.66;4863174;29;20132;-88
2023/08/05 04:27:03;;;;;;;15.93;8.73;;;;;;;12.63;100.00;101333.31;4845588;29;20520;-88
2023/08/05 04:29:29;;;;;;;13.23;8.20;;;;;;;12.67;100.00;101325.53;4859975;29;20029;-88
2023/08/05 04:31:54;;;;;;;12.87;8.67;;;;;;;12.71;100.00;101329.50;4861471;29;20025;-89
2023/08/05 04:34:20;;;;;;;13.77;8.70;;;;;;;12.74;100.00;101318.16;4860921;29;20390;-88
2023/08/05 04:36:52;;;;;;;13.33;9.17;;;;;;;12.76;100.00;101316.06;4845283;29;20034;-88
2023/08/05 04:39:19;;;;;;;13.02;9.40;;;;;;;12.78;100.00;101322.97;4845455;29;20069;-88
2023/08/05 04:41:45;;;;;;;16.25;9.10;;;;;;;12.80;100.00;101311.88;4860892;29;20038;-88
2023/08/05 04:44:11;;;;;;;9.23;7.82;;;;;;;12.81;100.00;101308.06;4845389;29;20550;-88
2023/08/05 04:46:36;;;;;;;15.07;8.53;;;;;;;12.80;100.00;101301.81;4861037;29;20120;-88
2023/08/05 04:49:07;;;;;;;12.15;8.90;;;;;;;12.80;100.00;101301.81;4860440;29;20505;-88
2023/08/05 04:51:37;;;;;;;12.13;8.57;;;;;;;12.82;100.00;101302.41;4845864;29;20490;-88
2023/08/05 04:54:05;;;;;;;14.93;8.97;;;;;;;12.80;100.00;101307.25;4845470;29;20521;-87
2023/08/05 04:56:31;;;;;;;15.02;8.65;;;;;;;12.80;100.00;101304.53;4861492;29;20085;-88
2023/08/05 04:58:56;;;;;;;12.38;9.25;;;;;;;12.85;100.00;101308.47;4860736;29;20037;-88
2023/08/05 05:01:22;;;;;;;12.37;8.67;;;;;;;12.89;100.00;101302.38;4845680;29;20041;-88
2023/08/05 05:03:49;;;;;;;15.57;8.90;;;;;;;12.89;100.00;101305.09;4844722;29;20052;-88
2023/08/05 05:06:14;;;;;;;14.68;8.77;;;;;;;12.89;100.00;101316.00;4829877;29;20032;-88
2023/08/05 05:08:40;;;;;;;13.30;9.00;;;;;;;12.86;100.00;101311.00;4845281;29;20033;-88
2023/08/05 05:11:07;;;;;;;12.85;8.73;;;;;;;12.89;100.00;101306.97;4844640;29;20030;-88
2023/08/05 05:13:33;;;;;;;13.93;8.70;;;;;;;12.93;100.00;101311.78;4860345;29;20490;-88
2023/08/05 05:16:01;;;;;;;17.17;9.40;;;;;;;12.97;100.00;101304.81;4861210;29;20033;-88
2023/08/05 05:18:26;;;;;;;15.40;8.57;;;;;;;12.96;100.00;101295.00;4844744;29;20386;-88
2023/08/05 05:20:53;;;;;;;15.47;8.70;;;;;;;13.01;100.00;101310.69;4844858;29;20030;-88
2023/08/05 05:23:21;;;;;;;13.93;8.93;;;;;;;13.04;100.00;101306.69;4861484;29;20037;-88
2023/08/05 05:25:46;;;;;;;14.65;8.90;;;;;;;13.10;100.00;101295.72;4844839;29;20037;-88
2023/08/05 05:28:12;;;;;;;12.63;8.70;;;;;;;13.21;100.00;101302.34;4861208;29;20037;-88
2023/08/05 05:30:40;;;;;;;13.00;9.17;;;;;;;13.27;100.00;101297.91;4844898;29;20165;-87
2023/08/05 05:33:06;;;;;;;16.60;9.35;;;;;;;13.35;100.00;101289.47;4860392;29;20029;-94
2023/08/05 05:35:31;;;;;;;13.40;9.13;;;;;;;13.42;100.00;101293.00;4830944;29;20041;-96
2023/08/05 05:37:57;;;;;;;15.93;8.93;;;;;;;13.48;100.00;101294.00;4862447;29;20513;-96
2023/08/05 05:40:22;;;;;;;14.73;8.40;;;;;;;13.55;100.00;101293.91;4864192;29;20033;-95
2023/08/05 05:42:51;;;;;;;14.43;9.03;;;;;;;13.58;100.00;101293.47;4867570;29;20097;-95
2023/08/05 05:45:17;;;;;;;13.93;9.00;;;;;;;13.69;100.00;101281.81;4852366;29;20041;-95
2023/08/05 05:47:44;;;;;;;16.92;10.05;;;;;;;13.79;100.00;101279.41;4867288;29;20033;-94
2023/08/05 05:50:19;;;;;;;14.27;9.70;;;;;;;13.84;100.00;101276.00;4851668;29;20435;-94
2023/08/05 05:52:46;;;;;;;17.97;9.30;;;;;;;13.98;100.00;101274.78;4851799;29;20406;-90
2023/08/05 05:55:15;;;;;;;13.88;9.07;;;;;;;14.10;100.00;101285.78;4848660;29;20046;-94
2023/08/05 05:57:45;;;;;;;11.98;8.98;;;;;;;14.26;100.00;101283.47;4833768;29;20474;-93
2023/08/05 06:00:11;;;;;;;16.55;9.45;;;;;;;14.36;100.00;101287.34;4848765;29;20042;-93
2023/08/05 06:02:37;;;;;;;14.15;8.48;;;;;;;14.51;100.00;101277.91;4833798;29;20030;-92
2023/08/05 06:05:05;;;;;;;12.63;8.67;;;;;;;14.56;100.00;101276.13;4818946;29;20069;-94
2023/08/05 06:07:31;;;;;;;13.35;8.13;;;;;;;14.61;100.00;101269.16;4848449;29;20483;-92
2023/08/05 06:10:01;;;;;;;15.93;8.30;;;;;;;14.69;100.00;101268.84;4848931;29;20034;-91
2023/08/05 06:12:32;;;;;;;15.27;7.60;;;;;;;14.76;100.00;101266.84;4818214;29;20034;-91
2023/08/05 06:15:00;;;;;;;14.45;7.50;;;;;;;14.86;100.00;101260.81;4832351;29;20053;-90
2023/08/05 06:17:58;;;;;;;9.80;7.20;;;;;;;14.98;100.00;101271.78;4849024;29;20054;-90
2023/08/05 06:20:26;;;;;;;13.00;7.50;;;;;;;15.08;100.00;101272.88;4832928;29;20551;-92
2023/08/05 06:22:55;;;;;;;11.20;7.07;;;;;;;15.23;100.00;101275.13;4832348;29;20193;-90
2023/08/05 06:25:29;;;;;;;9.55;6.78;;;;;;;15.27;100.00;101268.13;4849409;29;20042;-91
2023/08/05 06:28:00;;;;;;;13.68;6.75;;;;;;;15.31;100.00;101263.03;4848705;29;20099;-90
2023/08/05 06:30:33;;;;;;;9.03;5.97;;;;;;;15.42;100.00;101258.63;4849169;29;20041;-91
2023/08/05 06:33:14;;;;;;;9.15;6.20;;;;;;;15.48;100.00;101268.63;4847902;29;20143;-90
2023/08/05 06:35:42;;;;;;;8.50;6.15;;;;;;;15.48;100.00;101262.31;4848739;29;20041;-89
2023/08/05 06:38:08;;;;;;;7.20;6.10;;;;;;;15.48;100.00;101268.63;4848754;29;20099;-89
2023/08/05 06:40:33;;;;;;;6.73;5.37;;;;;;;15.48;100.00;101265.88;4831942;29;20033;-90
2023/08/05 06:43:01;;;;;;;9.53;6.20;;;;;;;15.54;100.00;101256.72;4832512;29;20029;-90
2023/08/05 06:45:27;;;;;;;13.85;5.53;;;;;;;15.55;100.00;101250.19;4847375;29;20030;-90
2023/08/05 06:47:52;;;;;;;9.17;5.97;;;;;;;15.65;100.00;101249.59;4848879;29;20478;-90
2023/08/05 06:50:20;;;;;;;9.55;6.25;;;;;;;15.73;100.00;101251.94;4847942;29;20045;-90
2023/08/05 06:52:45;;;;;;;11.57;6.63;;;;;;;15.86;100.00;101255.53;4845262;29;20056;-88
2023/08/05 06:55:12;;;;;;;11.57;6.55;;;;;;;15.93;100.00;101256.25;4862994;29;20042;-89
2023/08/05 06:57:37;;;;;;;11.30;7.53;;;;;;;15.97;100.00;101251.94;4848208;29;20094;-90
2023/08/05 07:00:06;;;;;;;10.20;6.93;;;;;;;16.10;100.00;101234.41;4847406;29;20452;-90
2023/08/05 07:02:31;;;;;;;10.65;6.85;;;;;;;16.16;100.00;101238.91;4832783;29;20102;-90
2023/08/05 07:04:57;;;;;;;11.17;7.47;;;;;;;16.25;100.00;101233.88;4864234;29;20451;-90
2023/08/05 07:07:23;;;;;;;10.73;6.70;;;;;;;16.38;100.00;101230.03;4831894;29;20561;-87
2023/08/05 07:09:48;;;;;;;8.33;6.47;;;;;;;16.52;100.00;101227.81;4863093;29;20036;-93
2023/08/05 07:12:16;;;;;;;9.48;6.47;;;;;;;16.53;100.00;101226.75;4864502;29;20092;-93
2023/08/05 07:14:44;;;;;;;8.38;5.55;;;;;;;16.59;100.00;101229.31;4863561;29;20479;-93
2023/08/05 07:17:10;;;;;;;7.00;5.37;;;;;;;16.53;100.00;101227.56;4864693;29;20039;-93
2023/08/05 07:19:35;;;;;;;8.57;5.40;;;;;;;16.54;100.00;101229.22;4863290;29;20030;-93
2023/08/05 07:22:01;;;;;;;8.33;5.73;;;;;;;16.60;100.00;101230.97;4832740;29;20037;-93
2023/08/05 07:24:26;;;;;;;10.97;5.30;;;;;;;16.71;100.00;101222.94;4863610;29;20029;-93
2023/08/05 07:26:51;;;;;;;9.00;5.67;;;;;;;16.82;100.00;101216.56;4862834;29;20124;-93
2023/08/05 07:29:19;;;;;;;7.95;4.97;;;;;;;16.91;100.00;101226.06;4863016;29;20120;-93
2023/08/05 07:31:45;;;;;;;7.60;5.10;;;;;;;17.03;100.00;101233.38;4848047;29;20138;-93
2023/08/05 07:34:16;;;;;;;6.85;5.47;;;;;;;17.04;100.00;101227.66;4847619;29;20471;-93
2023/08/05 07:36:43;;;;;;;8.73;5.27;;;;;;;17.06;100.00;101220.00;4848562;29;20041;-93
2023/08/05 07:39:09;;;;;;;8.27;5.50;;;;;;;17.25;100.00;101219.75;4847614;29;20037;-92
2023/08/05 07:41:36;;;;;;;8.65;5.47;;;;;;;17.36;100.00;101216.06;4863731;29;20033;-93
2023/08/05 07:44:03;;;;;;;7.88;5.53;;;;;;;17.38;100.00;101226.78;4863975;29;20041;-87
2023/08/05 07:46:35;;;;;;;7.35;5.75;;;;;;;17.29;100.00;101218.16;4861768;29;20041;-88
2023/08/05 07:49:02;;;;;;;7.77;5.73;;;;;;;17.30;100.00;101201.47;4861812;29;20044;-86
2023/08/05 07:51:30;;;;;;;9.18;5.63;;;;;;;17.42;100.00;101204.09;4861353;29;20039;-86
2023/08/05 07:54:05;;;;;;;7.50;5.78;;;;;;;17.53;100.00;101196.84;4845583;29;20133;-87
2023/08/05 07:56:41;;;;;;;7.70;5.38;;;;;;;17.60;100.00;101194.75;4863080;29;20049;-87
2023/08/05 07:59:07;;;;;;;6.57;5.22;;;;;;;17.67;100.00;101195.38;4846005;29;20033;-87
2023/08/05 08:01:33;;;;;;;8.83;5.73;;;;;;;17.96;100.00;101195.19;4862915;29;20116;-87
2023/08/05 08:04:07;;;;;;;8.85;5.35;;;;;;;18.15;100.00;101181.16;4845211;29;20038;-88
2023/08/05 08:06:32;;;;;;;7.95;4.90;;;;;;;18.31;98.01;101171.16;4862107;29;20124;-88
2023/08/05 08:08:58;;;;;;;6.87;4.60;;;;;;;18.61;98.68;101164.28;4846402;29;20465;-87
2023/08/05 08:11:23;;;;;;;7.40;4.10;;;;;;;18.87;96.94;101165.34;4830697;29;20033;-86
2023/08/05 08:13:49;;;;;;;7.20;4.27;;;;;;;18.93;91.39;101173.38;4862719;29;20041;-87
2023/08/05 08:16:15;;;;;;;8.23;4.70;;;;;;;18.75;93.18;101166.31;4846389;29;20033;-87
2023/08/05 08:18:41;;;;;;;4.50;3.60;;;;;;;18.81;94.59;101172.69;4846575;29;20306;-87
2023/08/05 08:21:07;;;;;;;4.25;3.13;;;;;;;18.89;92.55;101165.91;4862112;29;20033;-87
2023/08/05 08:23:33;;;;;;;3.30;2.90;;;;;;;18.89;92.85;101160.41;4845465;29;20045;-87
2023/08/05 08:26:01;;;;;;;9.27;3.30;;;;;;;18.75;93.50;101166.31;4862081;29;20041;-87
2023/08/05 08:28:27;;;;;;;6.97;3.22;;;;;;;18.68;93.04;101159.41;4846312;29;20479;-87
2023/08/05 08:30:55;;;;;;;5.87;2.90;;;;;;;18.64;94.42;101156.34;4862245;29;20080;-88
2023/08/05 08:33:25;;;;;;;5.90;3.00;;;;;;;18.62;92.74;101152.22;4861023;29;20044;-87
2023/08/05 08:35:53;;;;;;;4.22;3.05;;;;;;;18.57;93.87;101152.97;4862176;29;20038;-86
2023/08/05 08:38:18;;;;;;;4.60;2.70;;;;;;;18.61;94.45;101139.56;4845058;29;20033;-87
2023/08/05 08:40:52;;;;;;;4.63;2.50;;;;;;;18.71;95.36;101126.72;4830276;29;20044;-87
2023/08/05 08:43:19;;;;;;;4.72;3.22;;;;;;;18.86;91.89;101125.19;4861055;29;20040;-86
2023/08/05 08:45:47;;;;;;;5.38;2.40;;;;;;;19.06;91.19;101122.59;4845563;29;20054;-87
2023/08/05 08:48:13;;;;;;;5.33;2.30;;;;;;;19.40;88.94;101118.63;4862178;29;20033;-87
2023/08/05 08:50:39;;;;;;;4.25;2.40;;;;;;;19.72;86.15;101109.41;4861515;29;20041;-86
2023/08/05 08:53:06;;;;;;;5.20;2.60;;;;;;;19.78;84.16;101111.09;4845261;29;20030;-87
2023/08/05 08:55:32;;;;;;;5.18;2.47;;;;;;;19.85;84.74;101113.59;4860699;29;20106;-87
2023/08/05 08:57:58;;;;;;;5.13;2.55;;;;;;;19.91;83.52;101107.81;4844918;29;20410;-88
2023/08/05 09:00:26;;;;;;;4.40;2.77;;;;;;;19.93;83.85;101110.31;4845025;29;20029;-88
2023/08/05 09:02:53;;;;;;;5.00;2.97;;;;;;;20.02;82.18;101100.44;4860951;29;20375;-88
2023/08/05 09:05:18;;;;;;;4.40;2.40;;;;;;;20.45;82.54;101098.25;4861212;29;20391;-89
2023/08/05 09:07:48;;;;;;;4.33;2.50;;;;;;;;;;4830539;29;20038;-88
2023/08/05 09:10:13;;;;;;;7.32;2.80;;;;;;;20.88;77.17;101086.13;4845060;29;20041;-88
2023/08/05 09:12:40;;;;;;;6.57;3.30;;;;;;;20.60;76.94;101083.63;4845253;29;20069;-88
2023/08/05 09:15:05;;;;;;;4.55;3.00;;;;;;;20.24;79.67;101082.81;4860112;29;20488;-88
2023/08/05 09:17:41;;;;;;;6.55;2.88;;;;;;;20.06;80.99;101073.16;4844747;29;20045;-88
2023/08/05 09:20:16;;;;;;;5.70;2.73;;;;;;;20.03;81.43;101071.75;4860128;29;20034;-88
2023/08/05 09:22:54;;;;;;;4.35;2.75;;;;;;;20.10;83.09;101066.81;4845477;29;20133;-87
2023/08/05 09:25:20;;;;;;;5.20;2.58;;;;;;;20.41;82.67;101058.56;4860433;29;20037;-88
2023/08/05 09:27:47;;;;;;;6.55;3.22;;;;;;;20.61;79.13;101054.97;4845563;29;20044;-88
2023/08/05 09:30:22;;;;;;;5.57;3.00;;;;;;;20.61;79.99;101052.22;4860362;29;20413;-88
2023/08/05 09:32:48;;;;;;;4.47;3.13;;;;;;;20.52;78.67;101053.84;4860948;29;20075;-88
2023/08/05 09:35:15;;;;;;;5.72;3.53;;;;;;;20.44;79.11;101043.41;4844448;29;20495;-88
2023/08/05 09:37:48;;;;;;;4.93;3.47;;;;;;;20.48;79.04;101042.56;4844831;29;20101;-88
2023/08/05 09:40:16;;;;;;;6.90;3.30;;;;;;;20.48;80.25;101047.28;4860368;29;20041;-88
2023/08/05 09:42:42;;;;;;;3.72;2.75;;;;;;;20.53;79.81;101038.16;4845308;29;20439;-88
2023/08/05 09:45:09;;;;;;;5.68;3.15;;;;;;;20.50;80.41;101045.88;4844855;29;20041;-88
2023/08/05 09:47:36;;;;;;;4.90;3.10;;;;;;;20.35;81.14;101026.59;4844628;29;20041;-87
2023/08/05 09:50:05;;;;;;;4.53;3.08;;;;;;;20.30;80.94;101034.88;4859938;29;20128;-87
2023/08/05 09:52:33;;;;;;;5.77;3.23;;;;;;;20.18;79.85;101032.38;4844834;29;20049;-88
2023/08/05 09:55:16;;;;;;;4.78;3.58;;;;;;;19.89;82.03;101030.19;4844406;29;20064;-88
2023/08/05 09:57:42;;;;;;;3.97;2.95;;;;;;;19.61;83.43;101014.97;4844504;29;20471;-88
2023/08/05 10:00:11;;;;;;;5.13;3.20;;;;;;;19.48;82.95;101010.81;4860949;29;20120;-87
2023/08/05 10:02:39;;;;;;;3.40;2.80;;;;;;;19.40;83.63;101025.94;4859839;29;20037;-88
2023/08/05 10:05:05;;;;;;;3.47;2.60;;;;;;;19.39;84.19;101015.19;4860775;29;20040;-88
2023/08/05 10:07:31;;;;;;;5.05;3.10;;;;;;;19.52;85.18;101011.91;4844639;29;20042;-88
2023/08/05 10:09:58;;;;;;;5.73;3.10;;;;;;;19.58;83.72;101012.75;4861105;29;20463;-88
2023/08/05 10:12:37;;;;;;;6.15;3.28;;;;;;;19.34;84.85;100999.50;4830074;29;20116;-88
2023/08/05 10:15:05;;;;;;;5.50;3.17;;;;;;;19.04;86.59;101013.94;4844488;29;20025;-88
2023/08/05 10:17:31;;;;;;;8.48;3.80;;;;;;;18.71;90.80;101004.97;4859707;29;20058;-88
2023/08/05 10:20:00;;;;;;;5.70;4.00;;;;;;;18.09;95.03;100998.22;4859442;29;20037;-87
2023/08/05 10:22:28;;;;;;;8.37;4.40;;;;;;;17.73;97.05;101009.69;4844334;29;20098;-87
2023/08/05 10:24:56;;;;;;;9.48;4.65;;;;;;;17.69;97.40;100995.66;4859582;29;20042;-88
2023/08/05 10:27:43;;;;;;;8.73;5.30;;;;;;;17.84;95.58;101003.19;4861528;29;20383;-88
2023/08/05 10:30:10;;;;;;;6.45;5.18;;;;;;;18.04;95.80;100996.25;4847808;29;20045;-88
2023/08/05 10:32:48;;;;;;;7.15;4.68;;;;;;;18.39;92.83;101001.22;4847408;29;20509;-88
2023/08/05 10:35:43;;;;;;;6.13;4.10;;;;;;;18.73;91.44;100992.63;4863062;29;20034;-88
2023/08/05 10:38:22;;;;;;;7.55;4.38;;;;;;;19.06;90.65;100985.09;4863835;29;20040;-88
2023/08/05 10:41:01;;;;;;;4.75;4.28;;;;;;;19.31;89.00;100966.19;4831859;29;20471;-88
2023/08/05 10:43:32;;;;;;;6.45;3.92;;;;;;;19.67;86.47;100980.03;4848694;29;20428;-89
2023/08/05 10:46:00;;;;;;;5.38;4.07;;;;;;;19.72;83.26;100980.03;4847717;29;20393;-88
2023/08/05 10:48:33;;;;;;;4.97;3.70;;;;;;;19.64;82.06;100978.66;4847702;29;20038;-89
2023/08/05 10:51:23;;;;;;;6.22;3.67;;;;;;;19.42;82.01;100978.88;4847588;29;20060;-89
2023/08/05 10:53:54;;;;;;;4.35;3.38;;;;;;;19.19;81.54;100982.94;4846620;29;20060;-88
2023/08/05 10:56:32;;;;;;;4.53;3.50;;;;;;;19.19;83.47;100977.44;4847380;29;20029;-89
2023/08/05 10:59:04;;;;;;;6.10;4.00;;;;;;;19.16;82.91;100976.03;4863561;29;20040;-88
2023/08/05 11:02:14;;;;;;;5.33;3.70;;;;;;;19.18;83.22;100973.06;4862652;29;20040;-89
2023/08/05 11:04:40;;;;;;;6.57;3.38;;;;;;;19.29;84.50;100971.97;4836398;29;20033;-89
2023/08/05 11:07:06;;;;;;;6.00;3.33;;;;;;;19.44;82.53;100971.16;4862801;29;20485;-89
2023/08/05 11:09:34;;;;;;;6.73;3.50;;;;;;;19.24;81.52;100967.28;4847385;29;20049;-90
2023/08/05 11:12:00;;;;;;;3.50;3.20;;;;;;;19.12;84.01;100961.19;4863502;29;20108;-88
2023/08/05 11:14:28;;;;;;;7.70;3.70;;;;;;;19.15;82.63;100963.41;4847107;29;20040;-87
2023/08/05 11:17:07;;;;;;;5.60;3.22;;;;;;;19.05;83.45;100958.69;4863696;29;20041;-85
2023/08/05 11:19:54;;;;;;;7.40;3.17;;;;;;;18.86;84.74;100963.84;4862361;29;20029;-88